Rosa Maersk — OVST2 — position and weather

sailwx.info

Track history (hours):
 
Tides and Currents Weather Stations Pressure Air Temp Water Temp Dewpoint Dewpoint Depression Visibility Wind Speed Wind Dir Waves Ship Positions

Rosa Maersk

Last reported at 2015-Jul-06 22:29 UTC. Time now 2015-Jul-07 00:22 UTC.
Position N 55°13' E 013°20'.

Length 172 m; draft 6.5 m.

Type: Ship. MMSI: 220288000.

Date/timePositionNaut miles runAvg speedWind from/ knotsBaromVisibWave heightAir tempDewpointWater temp
2015-Jul-06 22:29N 55°13' E 013°20'1313.0
2015-Jul-06 21:31N 55°14' E 012°58'1212.8
2015-Jul-06 20:33N 55°18' E 012°38'1313.0
2015-Jul-06 19:33N 55°31' E 012°42'7 6.6
2015-Jul-06 18:33N 55°38' E 012°42'1110.7
2015-Jul-06 17:33N 55°48' E 012°42'1312.7
2015-Jul-06 16:33N 56°01' E 012°38'1111.6
2015-Jul-06 15:33N 56°10' E 012°25'3012.0
2015-Jul-06 13:04N 56°35' E 011°57'713.4
2015-Jul-06 12:33N 56°42' E 011°54'1513.4
2015-Jul-06 11:28N 56°55' E 011°44'1313.1
2015-Jul-06 10:27N 57°08' E 011°36'1213.1
2015-Jul-06 09:33N 57°19' E 011°28'1212.0
2015-Jul-06 08:33N 57°30' E 011°18'1412.6
2015-Jul-06 07:28N 57°40' E 011°01'1313.1
2015-Jul-06 06:28N 57°47' E 010°41'17312.5
2015-Jul-05 16:33N 55°49' E 006°48'1312.9
2015-Jul-05 15:33N 55°38' E 006°37'1313.0
2015-Jul-05 14:33N 55°27' E 006°26'1313.0
2015-Jul-05 13:33N 55°16' E 006°15'1313.1
2015-Jul-05 12:33N 55°04' E 006°04'1312.9
2015-Jul-05 11:33N 54°53' E 005°53'1313.0
2015-Jul-05 10:33N 54°41' E 005°43'1313.2
2015-Jul-05 09:33N 54°30' E 005°32'1413.5
2015-Jul-05 08:32N 54°18' E 005°19'1313.4
2015-Jul-05 07:33N 54°07' E 005°08'1313.3
2015-Jul-05 06:33N 53°54' E 004°60'1313.3
2015-Jul-05 05:33N 53°41' E 004°54'1313.2
2015-Jul-05 04:33N 53°29' E 004°46'1312.5
2015-Jul-05 03:33N 53°18' E 004°36'1212.1
2015-Jul-05 02:33N 53°07' E 004°27'1212.1
2015-Jul-05 01:33N 52°56' E 004°18'1212.0
2015-Jul-05 00:33N 52°46' E 004°08'1211.7
2015-Jul-04 23:33N 52°36' E 003°57'1111.4
2015-Jul-04 22:33N 52°25' E 003°52'1211.5
2015-Jul-04 21:33N 52°14' E 003°53'1111.5
2015-Jul-04 20:33N 52°02' E 003°54'10 9.8
2015-Jul-04 19:34N 51°58' E 004°08'4 3.5
2015-Jul-04 18:30N 51°55' E 004°13'0 0.0
2015-Jul-04 17:33N 51°55' E 004°13'0 0.0
2015-Jul-04 16:33N 51°55' E 004°13'0 0.0
2015-Jul-04 15:33N 51°55' E 004°13'0 0.0
2015-Jul-04 14:33N 51°55' E 004°13'0 0.0
2015-Jul-04 13:31N 51°55' E 004°13'0 0.0
2015-Jul-04 12:33N 51°55' E 004°13'0 0.0
2015-Jul-04 11:33N 51°55' E 004°13'0 0.0
2015-Jul-04 10:33N 51°55' E 004°13'0 0.0
2015-Jul-04 09:33N 51°55' E 004°13'0 0.0
2015-Jul-04 08:33N 51°55' E 004°13'0 0.0
2015-Jul-04 07:33N 51°55' E 004°13'0 0.0
2015-Jul-04 06:33N 51°55' E 004°13'0 0.0
2015-Jul-04 05:33N 51°55' E 004°13'0 0.0
2015-Jul-04 04:33N 51°55' E 004°13'0 0.0
2015-Jul-04 03:33N 51°55' E 004°13'0 0.0
2015-Jul-04 02:33N 51°55' E 004°13'0 0.0
2015-Jul-04 01:33N 51°55' E 004°13'0 0.0
2015-Jul-04 00:33N 51°55' E 004°13'0 0.0
2015-Jul-03 23:33N 51°55' E 004°13'0 0.0
2015-Jul-03 22:33N 51°55' E 004°13'0 0.0
2015-Jul-03 21:33N 51°55' E 004°13'0 0.0
2015-Jul-03 20:33N 51°55' E 004°13'5 5.0
2015-Jul-03 19:33N 51°58' E 004°06'3 2.9
2015-Jul-03 18:33N 51°57' E 004°11'8 7.5
2015-Jul-03 17:31N 51°54' E 004°22'0 0.0
2015-Jul-03 16:16N 51°54' E 004°22'0 0.0
2015-Jul-03 15:25N 51°54' E 004°22'0 0.0
2015-Jul-03 14:28N 51°54' E 004°22'0 0.0
2015-Jul-03 13:31N 51°54' E 004°22'0 0.0
2015-Jul-03 12:31N 51°54' E 004°22'0 0.0
2015-Jul-03 11:31N 51°54' E 004°22'0 0.0
2015-Jul-03 10:31N 51°54' E 004°22'0 0.0
2015-Jul-03 09:31N 51°54' E 004°22'0 0.0
2015-Jul-03 08:25N 51°54' E 004°22'0 0.0
2015-Jul-03 07:31N 51°54' E 004°22'0 0.0
2015-Jul-03 06:31N 51°54' E 004°22'0 0.0
2015-Jul-03 05:25N 51°54' E 004°22'0 0.0
2015-Jul-03 04:31N 51°54' E 004°22'0 0.0
2015-Jul-03 03:25N 51°54' E 004°22'0 0.0
2015-Jul-03 02:31N 51°54' E 004°22'0 0.0
2015-Jul-03 01:31N 51°54' E 004°22'0 0.0
2015-Jul-03 00:19N 51°54' E 004°22'0 0.0
2015-Jul-02 23:31N 51°54' E 004°22'0 0.0
2015-Jul-02 22:31N 51°54' E 004°22'0 0.0
2015-Jul-02 21:22N 51°54' E 004°22'0 0.0
2015-Jul-02 20:31N 51°54' E 004°22'0 0.0
2015-Jul-02 19:31N 51°54' E 004°22'0 0.0
2015-Jul-02 18:30N 51°54' E 004°22'0 0.0
2015-Jul-02 16:30N 51°54' E 004°22'0 0.4
2015-Jul-02 15:34N 51°54' E 004°22'8 7.7
2015-Jul-02 14:33N 51°57' E 004°10'8 8.5
2015-Jul-02 13:34N 51°60' E 003°57'6 5.4
2015-Jul-02 12:33N 52°00' E 003°48'7 7.1
2015-Jul-02 11:33N 51°57' E 003°37'7 7.0
2015-Jul-02 10:33N 51°55' E 003°27'2 0.0
2015-Jun-30 14:05N 51°53' E 003°24'3 5.1
2015-Jun-30 13:26N 51°54' E 003°19'1112.5
2015-Jun-30 12:33N 51°51' E 003°02'1313.1
2015-Jun-30 11:32N 51°47' E 002°41'1313.3
2015-Jun-30 10:33N 51°38' E 002°27'1312.9
2015-Jun-30 09:34N 51°28' E 002°13'1111.2
2015-Jun-30 08:34N 51°18' E 002°08'1110.6
2015-Jun-30 07:33N 51°11' E 001°55'1010.2
2015-Jun-30 06:33N 51°05' E 001°42'10 9.7
2015-Jun-30 05:33N 50°57' E 001°32'10 9.5
2015-Jun-30 04:34N 50°49' E 001°25'1010.2
2015-Jun-30 03:33N 50°40' E 001°16'2410.8
2015-Jun-30 01:19N 50°28' E 000°43'911.3
2015-Jun-30 00:33N 50°26' E 000°30'2611.4
2015-Jun-29 22:17N 50°19' W 000°09'2212.3
2015-Jun-29 20:29N 50°13' W 000°42'1313.8
2015-Jun-29 19:34N 50°09' W 001°01'1514.6
2015-Jun-29 18:33N 50°05' W 001°23'1915.3
2015-Jun-29 17:19N 50°00' W 001°52'1215.2
2015-Jun-29 16:33N 49°57' W 002°09'10312.4
2015-Jun-29 08:16N 49°12' W 004°31'2512.9
2015-Jun-29 06:20N 48°59' W 005°04'1012.9
2015-Jun-29 05:33N 48°54' W 005°18'1313.3
2015-Jun-29 04:32N 48°47' W 005°35'1313.2
2015-Jun-29 03:32N 48°36' W 005°46'1313.8
2015-Jun-29 02:33N 48°24' W 005°56'2014.0
2015-Jun-29 01:10N 48°07' W 006°09'913.9
2015-Jun-29 00:31N 47°59' W 006°16'1614.9
2015-Jun-28 23:26N 47°45' W 006°27'35013.9
2015-Jun-27 22:20N 42°29' W 009°59'7313.9
2015-Jun-27 17:06N 41°19' W 010°25'2514.0
2015-Jun-27 15:17N 40°55' W 010°34'2613.8
2015-Jun-27 13:22N 40°29' W 010°44'1113.8
2015-Jun-27 12:33N 40°18' W 010°47'1413.8
2015-Jun-27 11:33N 40°05' W 010°52'1413.7
2015-Jun-27 10:33N 39°52' W 010°57'1413.7
2015-Jun-27 09:33N 39°39' W 011°02'1613.9
2015-Jun-27 08:26N 39°24' W 011°07'1214.1
2015-Jun-27 07:33N 39°12' W 011°11'1414.0
2015-Jun-27 06:33N 38°58' W 011°16'1413.8
2015-Jun-27 05:33N 38°45' W 011°21'1413.6
2015-Jun-27 04:33N 38°32' W 011°26'1313.5
2015-Jun-27 03:33N 38°19' W 011°30'1313.2
2015-Jun-27 02:33N 38°06' W 011°35'1313.4
2015-Jun-27 01:33N 37°53' W 011°40'1313.2
2015-Jun-27 00:33N 37°40' W 011°44'1313.0
2015-Jun-26 23:33N 37°28' W 011°48'1313.4
2015-Jun-26 22:33N 37°15' W 011°53'  
Track history (hours):
 
Tides and Currents Weather Stations Pressure Air Temp Water Temp Dewpoint Dewpoint Depression Visibility Wind Speed Wind Dir Waves Ship Positions

Rosa Maersk

Last reported at 2015-Jul-06 22:29 UTC. Time now 2015-Jul-07 00:22 UTC.
Position N 55°13' E 013°20'.

Length 172 m; draft 6.5 m.

Type: Ship. MMSI: 220288000.

Date/timePositionNaut miles runAvg speedWind from/ knotsBaromVisibWave heightAir tempDewpointWater temp
2015-Jul-06 22:29N 55°13' E 013°20'1313.0
2015-Jul-06 21:31N 55°14' E 012°58'1212.8
2015-Jul-06 20:33N 55°18' E 012°38'1313.0
2015-Jul-06 19:33N 55°31' E 012°42'7 6.6
2015-Jul-06 18:33N 55°38' E 012°42'1110.7
2015-Jul-06 17:33N 55°48' E 012°42'1312.7
2015-Jul-06 16:33N 56°01' E 012°38'1111.6
2015-Jul-06 15:33N 56°10' E 012°25'3012.0
2015-Jul-06 13:04N 56°35' E 011°57'713.4
2015-Jul-06 12:33N 56°42' E 011°54'1513.4
2015-Jul-06 11:28N 56°55' E 011°44'1313.1
2015-Jul-06 10:27N 57°08' E 011°36'1213.1
2015-Jul-06 09:33N 57°19' E 011°28'1212.0
2015-Jul-06 08:33N 57°30' E 011°18'1412.6
2015-Jul-06 07:28N 57°40' E 011°01'1313.1
2015-Jul-06 06:28N 57°47' E 010°41'17312.5
2015-Jul-05 16:33N 55°49' E 006°48'1312.9
2015-Jul-05 15:33N 55°38' E 006°37'1313.0
2015-Jul-05 14:33N 55°27' E 006°26'1313.0
2015-Jul-05 13:33N 55°16' E 006°15'1313.1
2015-Jul-05 12:33N 55°04' E 006°04'1312.9
2015-Jul-05 11:33N 54°53' E 005°53'1313.0
2015-Jul-05 10:33N 54°41' E 005°43'1313.2
2015-Jul-05 09:33N 54°30' E 005°32'1413.5
2015-Jul-05 08:32N 54°18' E 005°19'1313.4
2015-Jul-05 07:33N 54°07' E 005°08'1313.3
2015-Jul-05 06:33N 53°54' E 004°60'1313.3
2015-Jul-05 05:33N 53°41' E 004°54'1313.2
2015-Jul-05 04:33N 53°29' E 004°46'1312.5
2015-Jul-05 03:33N 53°18' E 004°36'1212.1
2015-Jul-05 02:33N 53°07' E 004°27'1212.1
2015-Jul-05 01:33N 52°56' E 004°18'1212.0
2015-Jul-05 00:33N 52°46' E 004°08'1211.7
2015-Jul-04 23:33N 52°36' E 003°57'1111.4
2015-Jul-04 22:33N 52°25' E 003°52'1211.5
2015-Jul-04 21:33N 52°14' E 003°53'1111.5
2015-Jul-04 20:33N 52°02' E 003°54'10 9.8
2015-Jul-04 19:34N 51°58' E 004°08'4 3.5
2015-Jul-04 18:30N 51°55' E 004°13'0 0.0
2015-Jul-04 17:33N 51°55' E 004°13'0 0.0
2015-Jul-04 16:33N 51°55' E 004°13'0 0.0
2015-Jul-04 15:33N 51°55' E 004°13'0 0.0
2015-Jul-04 14:33N 51°55' E 004°13'0 0.0
2015-Jul-04 13:31N 51°55' E 004°13'0 0.0
2015-Jul-04 12:33N 51°55' E 004°13'0 0.0
2015-Jul-04 11:33N 51°55' E 004°13'0 0.0
2015-Jul-04 10:33N 51°55' E 004°13'0 0.0
2015-Jul-04 09:33N 51°55' E 004°13'0 0.0
2015-Jul-04 08:33N 51°55' E 004°13'0 0.0
2015-Jul-04 07:33N 51°55' E 004°13'0 0.0
2015-Jul-04 06:33N 51°55' E 004°13'0 0.0
2015-Jul-04 05:33N 51°55' E 004°13'0 0.0
2015-Jul-04 04:33N 51°55' E 004°13'0 0.0
2015-Jul-04 03:33N 51°55' E 004°13'0 0.0
2015-Jul-04 02:33N 51°55' E 004°13'0 0.0
2015-Jul-04 01:33N 51°55' E 004°13'0 0.0
2015-Jul-04 00:33N 51°55' E 004°13'0 0.0
2015-Jul-03 23:33N 51°55' E 004°13'0 0.0
2015-Jul-03 22:33N 51°55' E 004°13'0 0.0
2015-Jul-03 21:33N 51°55' E 004°13'0 0.0
2015-Jul-03 20:33N 51°55' E 004°13'5 5.0
2015-Jul-03 19:33N 51°58' E 004°06'3 2.9
2015-Jul-03 18:33N 51°57' E 004°11'8 7.5
2015-Jul-03 17:31N 51°54' E 004°22'0 0.0
2015-Jul-03 16:16N 51°54' E 004°22'0 0.0
2015-Jul-03 15:25N 51°54' E 004°22'0 0.0
2015-Jul-03 14:28N 51°54' E 004°22'0 0.0
2015-Jul-03 13:31N 51°54' E 004°22'0 0.0
2015-Jul-03 12:31N 51°54' E 004°22'0 0.0
2015-Jul-03 11:31N 51°54' E 004°22'0 0.0
2015-Jul-03 10:31N 51°54' E 004°22'0 0.0
2015-Jul-03 09:31N 51°54' E 004°22'0 0.0
2015-Jul-03 08:25N 51°54' E 004°22'0 0.0
2015-Jul-03 07:31N 51°54' E 004°22'0 0.0
2015-Jul-03 06:31N 51°54' E 004°22'0 0.0
2015-Jul-03 05:25N 51°54' E 004°22'0 0.0
2015-Jul-03 04:31N 51°54' E 004°22'0 0.0
2015-Jul-03 03:25N 51°54' E 004°22'0 0.0
2015-Jul-03 02:31N 51°54' E 004°22'0 0.0
2015-Jul-03 01:31N 51°54' E 004°22'0 0.0
2015-Jul-03 00:19N 51°54' E 004°22'0 0.0
2015-Jul-02 23:31N 51°54' E 004°22'0 0.0
2015-Jul-02 22:31N 51°54' E 004°22'0 0.0
2015-Jul-02 21:22N 51°54' E 004°22'0 0.0
2015-Jul-02 20:31N 51°54' E 004°22'0 0.0
2015-Jul-02 19:31N 51°54' E 004°22'0 0.0
2015-Jul-02 18:30N 51°54' E 004°22'0 0.0
2015-Jul-02 16:30N 51°54' E 004°22'0 0.4
2015-Jul-02 15:34N 51°54' E 004°22'8 7.7
2015-Jul-02 14:33N 51°57' E 004°10'8 8.5
2015-Jul-02 13:34N 51°60' E 003°57'6 5.4
2015-Jul-02 12:33N 52°00' E 003°48'7 7.1
2015-Jul-02 11:33N 51°57' E 003°37'7 7.0
2015-Jul-02 10:33N 51°55' E 003°27'2 0.0
2015-Jun-30 14:05N 51°53' E 003°24'3 5.1
2015-Jun-30 13:26N 51°54' E 003°19'1112.5
2015-Jun-30 12:33N 51°51' E 003°02'1313.1
2015-Jun-30 11:32N 51°47' E 002°41'1313.3
2015-Jun-30 10:33N 51°38' E 002°27'1312.9
2015-Jun-30 09:34N 51°28' E 002°13'1111.2
2015-Jun-30 08:34N 51°18' E 002°08'1110.6
2015-Jun-30 07:33N 51°11' E 001°55'1010.2
2015-Jun-30 06:33N 51°05' E 001°42'10 9.7
2015-Jun-30 05:33N 50°57' E 001°32'10 9.5
2015-Jun-30 04:34N 50°49' E 001°25'1010.2
2015-Jun-30 03:33N 50°40' E 001°16'2410.8
2015-Jun-30 01:19N 50°28' E 000°43'911.3
2015-Jun-30 00:33N 50°26' E 000°30'2611.4
2015-Jun-29 22:17N 50°19' W 000°09'2212.3
2015-Jun-29 20:29N 50°13' W 000°42'1313.8
2015-Jun-29 19:34N 50°09' W 001°01'1514.6
2015-Jun-29 18:33N 50°05' W 001°23'1915.3
2015-Jun-29 17:19N 50°00' W 001°52'1215.2
2015-Jun-29 16:33N 49°57' W 002°09'10312.4
2015-Jun-29 08:16N 49°12' W 004°31'2512.9
2015-Jun-29 06:20N 48°59' W 005°04'1012.9
2015-Jun-29 05:33N 48°54' W 005°18'1313.3
2015-Jun-29 04:32N 48°47' W 005°35'1313.2
2015-Jun-29 03:32N 48°36' W 005°46'1313.8
2015-Jun-29 02:33N 48°24' W 005°56'2014.0
2015-Jun-29 01:10N 48°07' W 006°09'913.9
2015-Jun-29 00:31N 47°59' W 006°16'1614.9
2015-Jun-28 23:26N 47°45' W 006°27'35013.9
2015-Jun-27 22:20N 42°29' W 009°59'7313.9
2015-Jun-27 17:06N 41°19' W 010°25'2514.0
2015-Jun-27 15:17N 40°55' W 010°34'2613.8
2015-Jun-27 13:22N 40°29' W 010°44'1113.8
2015-Jun-27 12:33N 40°18' W 010°47'1413.8
2015-Jun-27 11:33N 40°05' W 010°52'1413.7
2015-Jun-27 10:33N 39°52' W 010°57'1413.7
2015-Jun-27 09:33N 39°39' W 011°02'1613.9
2015-Jun-27 08:26N 39°24' W 011°07'1214.1
2015-Jun-27 07:33N 39°12' W 011°11'1414.0
2015-Jun-27 06:33N 38°58' W 011°16'1413.8
2015-Jun-27 05:33N 38°45' W 011°21'1413.6
2015-Jun-27 04:33N 38°32' W 011°26'1313.5
2015-Jun-27 03:33N 38°19' W 011°30'1313.2
2015-Jun-27 02:33N 38°06' W 011°35'1313.4
2015-Jun-27 01:33N 37°53' W 011°40'1313.2
2015-Jun-27 00:33N 37°40' W 011°44'1313.0
2015-Jun-26 23:33N 37°28' W 011°48'1313.4
2015-Jun-26 22:33N 37°15' W 011°53'  

Dump ship's entire track history